sensor_id;sensor_type;location;lat;lon;timestamp;P1;durP1;ratioP1;P2;durP2;ratioP2
80193;SDS011;69515;42.072;21.504;2024-02-26T00:01:54;4.15;;;2.33;;
80193;SDS011;69515;42.072;21.504;2024-02-26T00:04:21;5.07;;;1.83;;
80193;SDS011;69515;42.072;21.504;2024-02-26T00:06:47;5.57;;;2.17;;
80193;SDS011;69515;42.072;21.504;2024-02-26T00:09:16;4.30;;;2.20;;
80193;SDS011;69515;42.072;21.504;2024-02-26T00:11:42;4.45;;;2.83;;
80193;SDS011;69515;42.072;21.504;2024-02-26T00:14:09;5.78;;;2.45;;
80193;SDS011;69515;42.072;21.504;2024-02-26T00:16:35;4.82;;;2.75;;
80193;SDS011;69515;42.072;21.504;2024-02-26T00:19:01;7.32;;;2.90;;
80193;SDS011;69515;42.072;21.504;2024-02-26T00:21:27;5.38;;;2.88;;
80193;SDS011;69515;42.072;21.504;2024-02-26T00:23:54;5.53;;;2.85;;
80193;SDS011;69515;42.072;21.504;2024-02-26T00:26:20;5.07;;;2.75;;
80193;SDS011;69515;42.072;21.504;2024-02-26T00:28:46;5.85;;;2.20;;
80193;SDS011;69515;42.072;21.504;2024-02-26T00:31:13;4.80;;;2.53;;
80193;SDS011;69515;42.072;21.504;2024-02-26T00:33:39;4.78;;;2.22;;
80193;SDS011;69515;42.072;21.504;2024-02-26T00:36:05;4.43;;;2.25;;
80193;SDS011;69515;42.072;21.504;2024-02-26T00:38:31;4.38;;;1.90;;
80193;SDS011;69515;42.072;21.504;2024-02-26T00:40:58;3.38;;;1.65;;
80193;SDS011;69515;42.072;21.504;2024-02-26T00:43:24;3.88;;;1.65;;
80193;SDS011;69515;42.072;21.504;2024-02-26T00:45:50;3.45;;;1.63;;
80193;SDS011;69515;42.072;21.504;2024-02-26T00:48:17;5.82;;;1.67;;
80193;SDS011;69515;42.072;21.504;2024-02-26T00:50:43;4.00;;;1.90;;
80193;SDS011;69515;42.072;21.504;2024-02-26T00:53:09;4.15;;;1.85;;
80193;SDS011;69515;42.072;21.504;2024-02-26T00:55:36;3.83;;;2.00;;
80193;SDS011;69515;42.072;21.504;2024-02-26T00:58:02;5.78;;;2.80;;
80193;SDS011;69515;42.072;21.504;2024-02-26T01:00:28;4.22;;;1.90;;
80193;SDS011;69515;42.072;21.504;2024-02-26T01:02:54;5.10;;;2.28;;
80193;SDS011;69515;42.072;21.504;2024-02-26T01:05:21;3.92;;;2.00;;
80193;SDS011;69515;42.072;21.504;2024-02-26T01:07:48;4.10;;;2.25;;
80193;SDS011;69515;42.072;21.504;2024-02-26T01:10:14;4.70;;;2.30;;
80193;SDS011;69515;42.072;21.504;2024-02-26T01:12:40;4.53;;;1.90;;
80193;SDS011;69515;42.072;21.504;2024-02-26T01:15:06;4.82;;;2.10;;
80193;SDS011;69515;42.072;21.504;2024-02-26T01:17:33;4.45;;;2.30;;
80193;SDS011;69515;42.072;21.504;2024-02-26T01:19:59;6.10;;;2.25;;
80193;SDS011;69515;42.072;21.504;2024-02-26T01:22:25;3.95;;;1.90;;
80193;SDS011;69515;42.072;21.504;2024-02-26T01:24:52;4.32;;;1.90;;
80193;SDS011;69515;42.072;21.504;2024-02-26T01:27:18;4.32;;;2.10;;
80193;SDS011;69515;42.072;21.504;2024-02-26T01:29:44;10.73;;;2.40;;
80193;SDS011;69515;42.072;21.504;2024-02-26T01:32:11;4.75;;;2.20;;
80193;SDS011;69515;42.072;21.504;2024-02-26T01:34:37;4.68;;;2.00;;
80193;SDS011;69515;42.072;21.504;2024-02-26T01:37:03;3.50;;;1.80;;
80193;SDS011;69515;42.072;21.504;2024-02-26T01:39:29;3.50;;;1.80;;
80193;SDS011;69515;42.072;21.504;2024-02-26T01:41:55;4.85;;;2.10;;
80193;SDS011;69515;42.072;21.504;2024-02-26T01:44:22;4.80;;;2.22;;
80193;SDS011;69515;42.072;21.504;2024-02-26T01:46:48;3.58;;;1.80;;
80193;SDS011;69515;42.072;21.504;2024-02-26T01:49:15;6.25;;;1.80;;
80193;SDS011;69515;42.072;21.504;2024-02-26T01:51:41;3.65;;;1.70;;
80193;SDS011;69515;42.072;21.504;2024-02-26T01:54:09;4.25;;;2.03;;
80193;SDS011;69515;42.072;21.504;2024-02-26T01:56:36;6.20;;;2.42;;
80193;SDS011;69515;42.072;21.504;2024-02-26T01:59:03;4.45;;;1.80;;
80193;SDS011;69515;42.072;21.504;2024-02-26T02:01:31;5.47;;;1.90;;
80193;SDS011;69515;42.072;21.504;2024-02-26T02:03:59;4.13;;;1.73;;
80193;SDS011;69515;42.072;21.504;2024-02-26T02:06:26;5.05;;;1.60;;
80193;SDS011;69515;42.072;21.504;2024-02-26T02:08:55;4.60;;;1.80;;
80193;SDS011;69515;42.072;21.504;2024-02-26T02:11:21;3.80;;;1.67;;
80193;SDS011;69515;42.072;21.504;2024-02-26T02:13:47;4.97;;;2.28;;
80193;SDS011;69515;42.072;21.504;2024-02-26T02:16:13;3.20;;;1.40;;
80193;SDS011;69515;42.072;21.504;2024-02-26T02:18:40;4.28;;;1.52;;
80193;SDS011;69515;42.072;21.504;2024-02-26T02:21:06;3.55;;;1.70;;
80193;SDS011;69515;42.072;21.504;2024-02-26T02:23:32;3.85;;;1.50;;
80193;SDS011;69515;42.072;21.504;2024-02-26T02:25:58;3.53;;;1.73;;
80193;SDS011;69515;42.072;21.504;2024-02-26T02:28:25;3.35;;;1.70;;
80193;SDS011;69515;42.072;21.504;2024-02-26T02:30:52;2.95;;;1.40;;
80193;SDS011;69515;42.072;21.504;2024-02-26T02:33:18;5.70;;;1.75;;
80193;SDS011;69515;42.072;21.504;2024-02-26T02:35:44;4.88;;;1.70;;
80193;SDS011;69515;42.072;21.504;2024-02-26T02:38:11;4.28;;;1.35;;
80193;SDS011;69515;42.072;21.504;2024-02-26T02:40:37;4.00;;;1.70;;
80193;SDS011;69515;42.072;21.504;2024-02-26T02:43:03;3.78;;;1.75;;
80193;SDS011;69515;42.072;21.504;2024-02-26T02:45:29;5.20;;;2.42;;
80193;SDS011;69515;42.072;21.504;2024-02-26T02:47:56;3.30;;;1.88;;
80193;SDS011;69515;42.072;21.504;2024-02-26T02:50:22;4.25;;;1.88;;
80193;SDS011;69515;42.072;21.504;2024-02-26T02:52:48;3.25;;;1.70;;
80193;SDS011;69515;42.072;21.504;2024-02-26T02:55:15;4.85;;;2.03;;
80193;SDS011;69515;42.072;21.504;2024-02-26T02:57:41;4.28;;;1.80;;
80193;SDS011;69515;42.072;21.504;2024-02-26T03:00:10;7.13;;;1.70;;
80193;SDS011;69515;42.072;21.504;2024-02-26T03:02:36;4.32;;;1.80;;
80193;SDS011;69515;42.072;21.504;2024-02-26T03:05:05;3.65;;;1.73;;
80193;SDS011;69515;42.072;21.504;2024-02-26T03:07:32;4.82;;;1.80;;
80193;SDS011;69515;42.072;21.504;2024-02-26T03:09:58;4.25;;;2.10;;
80193;SDS011;69515;42.072;21.504;2024-02-26T03:12:24;4.10;;;2.15;;
80193;SDS011;69515;42.072;21.504;2024-02-26T03:14:50;4.75;;;1.90;;
80193;SDS011;69515;42.072;21.504;2024-02-26T03:17:19;4.18;;;1.95;;
80193;SDS011;69515;42.072;21.504;2024-02-26T03:19:46;4.78;;;1.90;;
80193;SDS011;69515;42.072;21.504;2024-02-26T03:22:12;4.57;;;2.15;;
80193;SDS011;69515;42.072;21.504;2024-02-26T03:24:38;5.53;;;2.05;;
80193;SDS011;69515;42.072;21.504;2024-02-26T03:27:04;6.00;;;2.40;;
80193;SDS011;69515;42.072;21.504;2024-02-26T03:29:34;5.65;;;2.15;;
80193;SDS011;69515;42.072;21.504;2024-02-26T03:32:01;3.30;;;1.70;;
80193;SDS011;69515;42.072;21.504;2024-02-26T03:34:27;4.63;;;2.03;;
80193;SDS011;69515;42.072;21.504;2024-02-26T03:36:55;3.72;;;1.85;;
80193;SDS011;69515;42.072;21.504;2024-02-26T03:39:21;4.63;;;2.15;;
80193;SDS011;69515;42.072;21.504;2024-02-26T03:41:48;4.82;;;2.90;;
80193;SDS011;69515;42.072;21.504;2024-02-26T03:44:14;5.13;;;1.80;;
80193;SDS011;69515;42.072;21.504;2024-02-26T03:46:40;4.85;;;1.77;;
80193;SDS011;69515;42.072;21.504;2024-02-26T03:49:08;4.72;;;1.83;;
80193;SDS011;69515;42.072;21.504;2024-02-26T03:51:34;8.48;;;1.83;;
80193;SDS011;69515;42.072;21.504;2024-02-26T03:54:00;4.10;;;1.70;;
80193;SDS011;69515;42.072;21.504;2024-02-26T03:56:26;4.20;;;1.80;;
80193;SDS011;69515;42.072;21.504;2024-02-26T03:58:53;4.32;;;2.00;;
80193;SDS011;69515;42.072;21.504;2024-02-26T04:01:19;4.43;;;1.85;;
80193;SDS011;69515;42.072;21.504;2024-02-26T04:03:45;4.80;;;1.55;;
80193;SDS011;69515;42.072;21.504;2024-02-26T04:06:12;4.68;;;1.90;;
80193;SDS011;69515;42.072;21.504;2024-02-26T04:08:44;4.03;;;1.88;;
80193;SDS011;69515;42.072;21.504;2024-02-26T04:11:10;4.47;;;2.15;;
80193;SDS011;69515;42.072;21.504;2024-02-26T04:13:37;2.97;;;1.63;;
80193;SDS011;69515;42.072;21.504;2024-02-26T04:16:06;3.00;;;1.63;;
80193;SDS011;69515;42.072;21.504;2024-02-26T04:18:32;3.90;;;1.50;;
80193;SDS011;69515;42.072;21.504;2024-02-26T04:20:59;2.92;;;1.42;;
80193;SDS011;69515;42.072;21.504;2024-02-26T04:23:25;4.28;;;1.58;;
80193;SDS011;69515;42.072;21.504;2024-02-26T04:25:51;3.15;;;1.45;;
80193;SDS011;69515;42.072;21.504;2024-02-26T04:28:18;3.20;;;1.77;;
80193;SDS011;69515;42.072;21.504;2024-02-26T04:30:46;3.10;;;1.42;;
80193;SDS011;69515;42.072;21.504;2024-02-26T04:33:13;4.15;;;1.63;;
80193;SDS011;69515;42.072;21.504;2024-02-26T04:35:39;3.72;;;1.83;;
80193;SDS011;69515;42.072;21.504;2024-02-26T04:38:06;3.85;;;1.70;;
80193;SDS011;69515;42.072;21.504;2024-02-26T04:40:32;3.30;;;1.35;;
80193;SDS011;69515;42.072;21.504;2024-02-26T04:42:58;3.40;;;1.60;;
80193;SDS011;69515;42.072;21.504;2024-02-26T04:45:24;3.67;;;1.70;;
80193;SDS011;69515;42.072;21.504;2024-02-26T04:47:50;4.28;;;1.92;;
80193;SDS011;69515;42.072;21.504;2024-02-26T04:50:17;4.82;;;1.50;;
80193;SDS011;69515;42.072;21.504;2024-02-26T04:52:43;4.40;;;1.45;;
80193;SDS011;69515;42.072;21.504;2024-02-26T04:55:09;3.22;;;1.38;;
80193;SDS011;69515;42.072;21.504;2024-02-26T04:57:36;2.70;;;1.30;;
80193;SDS011;69515;42.072;21.504;2024-02-26T05:02:30;3.95;;;1.60;;
80193;SDS011;69515;42.072;21.504;2024-02-26T05:04:58;3.85;;;1.65;;
80193;SDS011;69515;42.072;21.504;2024-02-26T05:07:25;3.65;;;1.40;;
80193;SDS011;69515;42.072;21.504;2024-02-26T05:09:51;3.67;;;1.83;;
80193;SDS011;69515;42.072;21.504;2024-02-26T05:14:43;2.65;;;1.38;;
80193;SDS011;69515;42.072;21.504;2024-02-26T05:19:35;2.88;;;1.38;;
80193;SDS011;69515;42.072;21.504;2024-02-26T05:22:01;3.67;;;1.80;;
80193;SDS011;69515;42.072;21.504;2024-02-26T05:26:53;4.43;;;1.45;;
80193;SDS011;69515;42.072;21.504;2024-02-26T05:29:20;4.43;;;1.65;;
80193;SDS011;69515;42.072;21.504;2024-02-26T05:31:46;6.75;;;1.73;;
80193;SDS011;69515;42.072;21.504;2024-02-26T05:34:13;4.18;;;2.00;;
80193;SDS011;69515;42.072;21.504;2024-02-26T05:39:05;3.85;;;1.75;;
80193;SDS011;69515;42.072;21.504;2024-02-26T05:41:32;4.40;;;1.90;;
80193;SDS011;69515;42.072;21.504;2024-02-26T05:43:58;3.92;;;1.85;;
80193;SDS011;69515;42.072;21.504;2024-02-26T05:46:24;3.20;;;1.42;;
80193;SDS011;69515;42.072;21.504;2024-02-26T05:48:52;4.72;;;1.48;;
80193;SDS011;69515;42.072;21.504;2024-02-26T05:51:18;4.47;;;1.70;;
80193;SDS011;69515;42.072;21.504;2024-02-26T05:53:44;3.58;;;1.70;;
80193;SDS011;69515;42.072;21.504;2024-02-26T05:56:12;4.18;;;2.00;;
80193;SDS011;69515;42.072;21.504;2024-02-26T05:58:38;3.15;;;1.50;;
80193;SDS011;69515;42.072;21.504;2024-02-26T06:01:04;3.25;;;1.55;;
80193;SDS011;69515;42.072;21.504;2024-02-26T06:03:30;13.23;;;1.90;;
80193;SDS011;69515;42.072;21.504;2024-02-26T06:05:57;3.28;;;1.70;;
80193;SDS011;69515;42.072;21.504;2024-02-26T06:08:23;4.50;;;1.52;;
80193;SDS011;69515;42.072;21.504;2024-02-26T06:10:50;2.92;;;1.50;;
80193;SDS011;69515;42.072;21.504;2024-02-26T06:13:16;3.75;;;1.35;;
80193;SDS011;69515;42.072;21.504;2024-02-26T06:15:42;4.43;;;1.60;;
80193;SDS011;69515;42.072;21.504;2024-02-26T06:18:08;3.15;;;1.50;;
80193;SDS011;69515;42.072;21.504;2024-02-26T06:20:34;3.67;;;1.50;;
80193;SDS011;69515;42.072;21.504;2024-02-26T06:23:01;5.43;;;2.28;;
80193;SDS011;69515;42.072;21.504;2024-02-26T06:25:27;6.07;;;1.95;;
80193;SDS011;69515;42.072;21.504;2024-02-26T06:27:53;5.00;;;1.90;;
80193;SDS011;69515;42.072;21.504;2024-02-26T06:30:20;3.97;;;1.92;;
80193;SDS011;69515;42.072;21.504;2024-02-26T06:32:46;4.70;;;2.20;;
80193;SDS011;69515;42.072;21.504;2024-02-26T06:35:12;4.72;;;2.03;;
80193;SDS011;69515;42.072;21.504;2024-02-26T06:37:40;5.10;;;2.17;;
80193;SDS011;69515;42.072;21.504;2024-02-26T06:40:06;2.95;;;1.45;;
80193;SDS011;69515;42.072;21.504;2024-02-26T06:42:32;5.00;;;1.73;;
80193;SDS011;69515;42.072;21.504;2024-02-26T06:44:59;4.07;;;1.88;;
80193;SDS011;69515;42.072;21.504;2024-02-26T06:47:31;4.53;;;2.10;;
80193;SDS011;69515;42.072;21.504;2024-02-26T06:49:58;6.22;;;2.85;;
80193;SDS011;69515;42.072;21.504;2024-02-26T06:52:26;4.35;;;2.22;;
80193;SDS011;69515;42.072;21.504;2024-02-26T06:54:53;5.63;;;2.22;;
80193;SDS011;69515;42.072;21.504;2024-02-26T06:57:40;9.65;;;4.95;;
80193;SDS011;69515;42.072;21.504;2024-02-26T07:00:07;5.03;;;2.53;;
80193;SDS011;69515;42.072;21.504;2024-02-26T07:02:34;3.95;;;2.10;;
80193;SDS011;69515;42.072;21.504;2024-02-26T07:05:00;8.32;;;2.60;;
80193;SDS011;69515;42.072;21.504;2024-02-26T07:07:26;4.13;;;1.65;;
80193;SDS011;69515;42.072;21.504;2024-02-26T07:10:14;4.70;;;2.30;;
80193;SDS011;69515;42.072;21.504;2024-02-26T07:12:41;3.92;;;1.60;;
80193;SDS011;69515;42.072;21.504;2024-02-26T07:15:09;5.20;;;1.90;;
80193;SDS011;69515;42.072;21.504;2024-02-26T07:17:35;4.63;;;1.83;;
80193;SDS011;69515;42.072;21.504;2024-02-26T07:20:02;4.63;;;1.80;;
80193;SDS011;69515;42.072;21.504;2024-02-26T07:22:31;6.15;;;2.38;;
80193;SDS011;69515;42.072;21.504;2024-02-26T07:24:58;7.07;;;2.90;;
80193;SDS011;69515;42.072;21.504;2024-02-26T07:27:24;5.10;;;2.20;;
80193;SDS011;69515;42.072;21.504;2024-02-26T07:29:50;4.78;;;2.13;;
80193;SDS011;69515;42.072;21.504;2024-02-26T07:32:16;4.30;;;1.70;;
80193;SDS011;69515;42.072;21.504;2024-02-26T07:34:43;6.95;;;2.50;;
80193;SDS011;69515;42.072;21.504;2024-02-26T07:37:10;68.20;;;7.07;;
80193;SDS011;69515;42.072;21.504;2024-02-26T07:39:39;5.53;;;1.88;;
80193;SDS011;69515;42.072;21.504;2024-02-26T07:42:06;6.05;;;2.30;;
80193;SDS011;69515;42.072;21.504;2024-02-26T07:50:45;7.22;;;3.13;;
80193;SDS011;69515;42.072;21.504;2024-02-26T07:53:14;6.45;;;3.20;;
80193;SDS011;69515;42.072;21.504;2024-02-26T07:55:40;7.38;;;4.05;;
80193;SDS011;69515;42.072;21.504;2024-02-26T07:58:07;8.52;;;4.55;;
80193;SDS011;69515;42.072;21.504;2024-02-26T08:00:33;9.18;;;4.50;;
80193;SDS011;69515;42.072;21.504;2024-02-26T08:02:59;9.43;;;5.50;;
80193;SDS011;69515;42.072;21.504;2024-02-26T08:05:25;8.07;;;4.10;;
80193;SDS011;69515;42.072;21.504;2024-02-26T08:07:51;9.02;;;5.35;;
80193;SDS011;69515;42.072;21.504;2024-02-26T08:10:21;9.68;;;4.70;;
80193;SDS011;69515;42.072;21.504;2024-02-26T08:12:47;10.43;;;5.00;;
80193;SDS011;69515;42.072;21.504;2024-02-26T08:15:13;8.93;;;4.82;;
80193;SDS011;69515;42.072;21.504;2024-02-26T08:17:40;10.82;;;4.70;;
80193;SDS011;69515;42.072;21.504;2024-02-26T08:20:06;7.15;;;3.42;;
80193;SDS011;69515;42.072;21.504;2024-02-26T08:22:32;5.53;;;3.10;;
80193;SDS011;69515;42.072;21.504;2024-02-26T08:24:59;7.03;;;3.13;;
80193;SDS011;69515;42.072;21.504;2024-02-26T08:27:34;15.05;;;5.13;;
80193;SDS011;69515;42.072;21.504;2024-02-26T08:30:00;5.20;;;2.40;;
80193;SDS011;69515;42.072;21.504;2024-02-26T08:32:29;4.90;;;2.17;;
80193;SDS011;69515;42.072;21.504;2024-02-26T08:34:55;7.60;;;4.13;;
80193;SDS011;69515;42.072;21.504;2024-02-26T08:37:21;17.63;;;5.75;;
80193;SDS011;69515;42.072;21.504;2024-02-26T08:39:48;9.13;;;4.07;;
80193;SDS011;69515;42.072;21.504;2024-02-26T08:42:15;7.07;;;3.00;;
80193;SDS011;69515;42.072;21.504;2024-02-26T08:44:51;7.20;;;2.88;;
80193;SDS011;69515;42.072;21.504;2024-02-26T08:47:23;6.85;;;3.60;;
80193;SDS011;69515;42.072;21.504;2024-02-26T08:50:00;7.93;;;4.05;;
80193;SDS011;69515;42.072;21.504;2024-02-26T08:52:27;7.50;;;3.50;;
80193;SDS011;69515;42.072;21.504;2024-02-26T08:54:55;8.80;;;3.95;;
80193;SDS011;69515;42.072;21.504;2024-02-26T08:57:22;13.20;;;5.05;;
80193;SDS011;69515;42.072;21.504;2024-02-26T08:59:52;6.28;;;3.30;;
80193;SDS011;69515;42.072;21.504;2024-02-26T09:02:20;6.50;;;3.53;;
80193;SDS011;69515;42.072;21.504;2024-02-26T09:04:47;9.00;;;4.05;;
80193;SDS011;69515;42.072;21.504;2024-02-26T09:07:15;6.25;;;3.00;;
80193;SDS011;69515;42.072;21.504;2024-02-26T09:09:41;7.97;;;3.13;;
80193;SDS011;69515;42.072;21.504;2024-02-26T09:12:07;14.50;;;6.65;;
80193;SDS011;69515;42.072;21.504;2024-02-26T09:14:34;12.82;;;3.33;;
80193;SDS011;69515;42.072;21.504;2024-02-26T09:17:00;7.78;;;2.83;;
80193;SDS011;69515;42.072;21.504;2024-02-26T09:19:26;4.15;;;1.83;;
80193;SDS011;69515;42.072;21.504;2024-02-26T09:21:53;5.32;;;2.05;;
80193;SDS011;69515;42.072;21.504;2024-02-26T09:24:22;3.47;;;1.70;;
80193;SDS011;69515;42.072;21.504;2024-02-26T09:26:49;4.47;;;1.77;;
80193;SDS011;69515;42.072;21.504;2024-02-26T09:29:15;3.10;;;1.40;;
80193;SDS011;69515;42.072;21.504;2024-02-26T09:32:02;4.15;;;1.60;;
80193;SDS011;69515;42.072;21.504;2024-02-26T09:34:28;3.70;;;1.50;;
80193;SDS011;69515;42.072;21.504;2024-02-26T09:36:55;4.22;;;1.50;;
80193;SDS011;69515;42.072;21.504;2024-02-26T09:39:24;3.38;;;1.45;;
80193;SDS011;69515;42.072;21.504;2024-02-26T09:41:50;7.63;;;1.70;;
80193;SDS011;69515;42.072;21.504;2024-02-26T09:44:21;3.35;;;1.52;;
80193;SDS011;69515;42.072;21.504;2024-02-26T09:46:47;4.10;;;1.42;;
80193;SDS011;69515;42.072;21.504;2024-02-26T09:49:16;3.65;;;1.27;;
80193;SDS011;69515;42.072;21.504;2024-02-26T09:51:42;4.35;;;1.60;;
80193;SDS011;69515;42.072;21.504;2024-02-26T09:54:29;3.72;;;1.13;;
80193;SDS011;69515;42.072;21.504;2024-02-26T09:57:00;4.93;;;1.55;;
80193;SDS011;69515;42.072;21.504;2024-02-26T09:59:37;4.78;;;1.38;;
80193;SDS011;69515;42.072;21.504;2024-02-26T10:02:14;2.67;;;1.13;;
80193;SDS011;69515;42.072;21.504;2024-02-26T10:04:43;2.63;;;1.23;;
80193;SDS011;69515;42.072;21.504;2024-02-26T10:10:21;4.60;;;1.40;;
80193;SDS011;69515;42.072;21.504;2024-02-26T10:12:48;14.82;;;1.92;;
80193;SDS011;69515;42.072;21.504;2024-02-26T10:15:15;4.15;;;1.65;;
80193;SDS011;69515;42.072;21.504;2024-02-26T10:18:05;3.80;;;1.65;;
80193;SDS011;69515;42.072;21.504;2024-02-26T10:20:32;4.68;;;1.48;;
80193;SDS011;69515;42.072;21.504;2024-02-26T10:23:02;3.55;;;1.40;;
80193;SDS011;69515;42.072;21.504;2024-02-26T10:25:34;3.05;;;1.50;;
80193;SDS011;69515;42.072;21.504;2024-02-26T10:28:03;7.43;;;2.10;;
80193;SDS011;69515;42.072;21.504;2024-02-26T10:30:30;6.35;;;2.00;;
80193;SDS011;69515;42.072;21.504;2024-02-26T10:32:57;4.95;;;2.22;;
80193;SDS011;69515;42.072;21.504;2024-02-26T10:35:24;5.28;;;1.92;;
80193;SDS011;69515;42.072;21.504;2024-02-26T10:38:10;3.80;;;1.70;;
80193;SDS011;69515;42.072;21.504;2024-02-26T10:40:36;4.97;;;2.08;;
80193;SDS011;69515;42.072;21.504;2024-02-26T10:43:05;5.22;;;2.17;;
80193;SDS011;69515;42.072;21.504;2024-02-26T10:45:32;6.18;;;2.00;;
80193;SDS011;69515;42.072;21.504;2024-02-26T10:47:59;4.15;;;1.65;;
80193;SDS011;69515;42.072;21.504;2024-02-26T10:50:26;10.55;;;2.17;;
80193;SDS011;69515;42.072;21.504;2024-02-26T10:52:52;4.95;;;2.20;;
80193;SDS011;69515;42.072;21.504;2024-02-26T10:55:21;4.05;;;1.80;;
80193;SDS011;69515;42.072;21.504;2024-02-26T10:57:50;3.33;;;1.50;;
80193;SDS011;69515;42.072;21.504;2024-02-26T11:00:16;3.60;;;1.50;;
80193;SDS011;69515;42.072;21.504;2024-02-26T11:02:44;4.43;;;1.63;;
80193;SDS011;69515;42.072;21.504;2024-02-26T11:05:13;6.65;;;1.52;;
80193;SDS011;69515;42.072;21.504;2024-02-26T11:07:41;6.38;;;1.50;;
80193;SDS011;69515;42.072;21.504;2024-02-26T11:10:07;14.15;;;2.13;;
80193;SDS011;69515;42.072;21.504;2024-02-26T11:12:35;5.85;;;2.10;;
80193;SDS011;69515;42.072;21.504;2024-02-26T11:15:02;5.03;;;1.65;;
80193;SDS011;69515;42.072;21.504;2024-02-26T11:17:29;4.72;;;1.60;;
80193;SDS011;69515;42.072;21.504;2024-02-26T11:20:00;7.20;;;1.70;;
80193;SDS011;69515;42.072;21.504;2024-02-26T11:22:29;5.05;;;1.60;;
80193;SDS011;69515;42.072;21.504;2024-02-26T11:25:17;4.40;;;1.30;;
80193;SDS011;69515;42.072;21.504;2024-02-26T11:27:45;4.45;;;1.80;;
80193;SDS011;69515;42.072;21.504;2024-02-26T11:30:14;8.82;;;2.08;;
80193;SDS011;69515;42.072;21.504;2024-02-26T11:32:44;4.95;;;2.00;;
80193;SDS011;69515;42.072;21.504;2024-02-26T11:35:28;4.35;;;1.77;;
80193;SDS011;69515;42.072;21.504;2024-02-26T11:37:55;3.75;;;1.75;;
80193;SDS011;69515;42.072;21.504;2024-02-26T11:40:22;10.65;;;1.83;;
80193;SDS011;69515;42.072;21.504;2024-02-26T11:42:52;4.28;;;1.83;;
80193;SDS011;69515;42.072;21.504;2024-02-26T11:48:04;5.40;;;1.90;;
80193;SDS011;69515;42.072;21.504;2024-02-26T11:50:36;3.60;;;1.70;;
80193;SDS011;69515;42.072;21.504;2024-02-26T11:55:46;3.35;;;1.50;;
80193;SDS011;69515;42.072;21.504;2024-02-26T11:58:12;4.55;;;1.92;;
80193;SDS011;69515;42.072;21.504;2024-02-26T12:00:42;6.28;;;2.17;;
80193;SDS011;69515;42.072;21.504;2024-02-26T12:03:08;4.47;;;1.60;;
80193;SDS011;69515;42.072;21.504;2024-02-26T12:05:37;4.22;;;1.50;;
80193;SDS011;69515;42.072;21.504;2024-02-26T12:08:06;5.07;;;1.67;;
80193;SDS011;69515;42.072;21.504;2024-02-26T12:10:33;6.22;;;1.92;;
80193;SDS011;69515;42.072;21.504;2024-02-26T12:13:14;8.00;;;1.67;;
80193;SDS011;69515;42.072;21.504;2024-02-26T12:15:42;10.38;;;2.90;;
80193;SDS011;69515;42.072;21.504;2024-02-26T12:18:09;4.80;;;1.60;;
80193;SDS011;69515;42.072;21.504;2024-02-26T12:20:38;5.90;;;1.40;;
80193;SDS011;69515;42.072;21.504;2024-02-26T12:23:04;12.15;;;1.80;;
80193;SDS011;69515;42.072;21.504;2024-02-26T12:25:31;6.35;;;1.63;;
80193;SDS011;69515;42.072;21.504;2024-02-26T12:27:58;4.93;;;1.55;;
80193;SDS011;69515;42.072;21.504;2024-02-26T12:30:25;5.13;;;1.58;;
80193;SDS011;69515;42.072;21.504;2024-02-26T12:32:51;7.30;;;2.50;;
80193;SDS011;69515;42.072;21.504;2024-02-26T12:35:22;3.70;;;1.40;;
80193;SDS011;69515;42.072;21.504;2024-02-26T12:37:48;4.80;;;1.50;;
80193;SDS011;69515;42.072;21.504;2024-02-26T12:40:16;7.15;;;1.90;;
80193;SDS011;69515;42.072;21.504;2024-02-26T12:42:43;3.70;;;1.70;;
80193;SDS011;69515;42.072;21.504;2024-02-26T12:45:10;6.63;;;1.77;;
80193;SDS011;69515;42.072;21.504;2024-02-26T12:47:39;5.60;;;1.80;;
80193;SDS011;69515;42.072;21.504;2024-02-26T12:50:06;5.85;;;1.75;;
80193;SDS011;69515;42.072;21.504;2024-02-26T12:52:33;3.42;;;1.52;;
80193;SDS011;69515;42.072;21.504;2024-02-26T12:55:02;4.95;;;1.85;;
80193;SDS011;69515;42.072;21.504;2024-02-26T12:57:31;6.25;;;2.03;;
80193;SDS011;69515;42.072;21.504;2024-02-26T12:59:59;4.40;;;1.90;;
80193;SDS011;69515;42.072;21.504;2024-02-26T13:02:25;5.60;;;2.33;;
80193;SDS011;69515;42.072;21.504;2024-02-26T13:04:52;6.65;;;1.90;;
80193;SDS011;69515;42.072;21.504;2024-02-26T13:07:20;4.50;;;2.25;;
80193;SDS011;69515;42.072;21.504;2024-02-26T13:09:46;5.30;;;2.17;;
80193;SDS011;69515;42.072;21.504;2024-02-26T13:12:13;7.05;;;2.30;;
80193;SDS011;69515;42.072;21.504;2024-02-26T13:14:40;5.50;;;2.40;;
80193;SDS011;69515;42.072;21.504;2024-02-26T13:17:06;5.22;;;2.58;;
80193;SDS011;69515;42.072;21.504;2024-02-26T13:19:33;6.15;;;2.05;;
80193;SDS011;69515;42.072;21.504;2024-02-26T13:22:05;3.80;;;1.55;;
80193;SDS011;69515;42.072;21.504;2024-02-26T13:24:33;14.77;;;3.33;;
80193;SDS011;69515;42.072;21.504;2024-02-26T13:26:59;7.88;;;2.72;;
80193;SDS011;69515;42.072;21.504;2024-02-26T13:29:28;5.10;;;2.53;;
80193;SDS011;69515;42.072;21.504;2024-02-26T13:31:57;3.67;;;1.77;;
80193;SDS011;69515;42.072;21.504;2024-02-26T13:34:27;5.63;;;2.28;;
80193;SDS011;69515;42.072;21.504;2024-02-26T13:36:56;6.68;;;2.03;;
80193;SDS011;69515;42.072;21.504;2024-02-26T13:39:22;9.77;;;2.15;;
80193;SDS011;69515;42.072;21.504;2024-02-26T13:41:49;6.07;;;2.20;;
80193;SDS011;69515;42.072;21.504;2024-02-26T13:44:16;5.95;;;2.42;;
80193;SDS011;69515;42.072;21.504;2024-02-26T13:46:42;5.07;;;2.25;;
80193;SDS011;69515;42.072;21.504;2024-02-26T13:49:08;6.03;;;2.17;;
80193;SDS011;69515;42.072;21.504;2024-02-26T13:51:38;5.13;;;1.90;;
80193;SDS011;69515;42.072;21.504;2024-02-26T13:54:05;5.80;;;2.28;;
80193;SDS011;69515;42.072;21.504;2024-02-26T13:56:31;5.82;;;2.63;;
80193;SDS011;69515;42.072;21.504;2024-02-26T13:58:58;4.50;;;2.22;;
80193;SDS011;69515;42.072;21.504;2024-02-26T14:01:25;4.85;;;2.30;;
80193;SDS011;69515;42.072;21.504;2024-02-26T14:03:51;6.65;;;1.90;;
80193;SDS011;69515;42.072;21.504;2024-02-26T14:06:20;4.18;;;2.00;;
80193;SDS011;69515;42.072;21.504;2024-02-26T14:08:46;4.13;;;1.90;;
80193;SDS011;69515;42.072;21.504;2024-02-26T14:11:12;5.10;;;1.80;;
80193;SDS011;69515;42.072;21.504;2024-02-26T14:13:39;4.65;;;2.00;;
80193;SDS011;69515;42.072;21.504;2024-02-26T14:16:05;4.88;;;2.10;;
80193;SDS011;69515;42.072;21.504;2024-02-26T14:18:31;6.82;;;2.25;;
80193;SDS011;69515;42.072;21.504;2024-02-26T14:20:57;4.90;;;2.00;;
80193;SDS011;69515;42.072;21.504;2024-02-26T14:23:24;6.20;;;2.60;;
80193;SDS011;69515;42.072;21.504;2024-02-26T14:25:50;9.10;;;2.40;;
80193;SDS011;69515;42.072;21.504;2024-02-26T14:28:16;8.95;;;2.70;;
80193;SDS011;69515;42.072;21.504;2024-02-26T14:30:42;8.80;;;2.30;;
80193;SDS011;69515;42.072;21.504;2024-02-26T14:33:09;9.85;;;3.58;;
80193;SDS011;69515;42.072;21.504;2024-02-26T14:35:35;6.80;;;3.40;;
80193;SDS011;69515;42.072;21.504;2024-02-26T14:38:01;9.18;;;4.00;;
80193;SDS011;69515;42.072;21.504;2024-02-26T14:40:28;9.13;;;4.00;;
80193;SDS011;69515;42.072;21.504;2024-02-26T14:42:55;5.63;;;2.50;;
80193;SDS011;69515;42.072;21.504;2024-02-26T14:45:22;6.93;;;2.85;;
80193;SDS011;69515;42.072;21.504;2024-02-26T14:47:49;6.40;;;2.70;;
80193;SDS011;69515;42.072;21.504;2024-02-26T14:50:15;4.47;;;2.25;;
80193;SDS011;69515;42.072;21.504;2024-02-26T14:52:41;4.40;;;2.20;;
80193;SDS011;69515;42.072;21.504;2024-02-26T14:55:07;5.78;;;2.50;;
80193;SDS011;69515;42.072;21.504;2024-02-26T14:57:34;4.40;;;2.20;;
80193;SDS011;69515;42.072;21.504;2024-02-26T15:00:00;6.53;;;2.47;;
80193;SDS011;69515;42.072;21.504;2024-02-26T15:02:32;6.10;;;2.80;;